Time;durP1;ratioP1;P1;durP2;ratioP2;P2;SDS_P1;SDS_P2;PMS_P1;PMS_P2;Temp;Humidity;BMP_temperature;BMP_pressure;BME280_temperature;BME280_humidity;BME280_pressure;Samples;Min_cycle;Max_cycle;Signal;HPM_P1;HPM_P2
2022/11/01 00:01:37;;;;;;;16.73;7.80;;;;;;;-145.18;100.00;46676.03;5092720;28;20040;-73
2022/11/01 00:04:03;;;;;;;21.97;7.57;;;;;;;-145.18;100.00;46670.16;5092851;28;20040;-73
2022/11/01 00:06:28;;;;;;;15.23;7.80;;;;;;;-145.18;100.00;46681.88;5092413;28;20156;-73
2022/11/01 00:08:54;;;;;;;20.20;8.90;;;;;;;-145.18;100.00;46676.03;5092811;28;20477;-73
2022/11/01 00:11:19;;;;;;;19.80;7.77;;;;;;;-145.18;100.00;46672.13;5092826;28;20086;-73
2022/11/01 00:13:46;;;;;;;17.97;7.37;;;;;;;-145.18;100.00;46677.97;5092952;28;20446;-73
2022/11/01 00:16:12;;;;;;;15.80;8.00;;;;;;;-145.18;100.00;46676.03;5092305;28;20028;-73
2022/11/01 00:18:38;;;;;;;20.00;7.30;;;;;;;-145.18;100.00;46672.13;5074597;28;20032;-73
2022/11/01 00:21:04;;;;;;;19.70;7.37;;;;;;;-145.18;100.00;46668.22;5092190;28;20028;-73
2022/11/01 00:23:29;;;;;;;13.70;7.03;;;;;;;-145.18;100.00;46674.06;5092711;28;20100;-73
2022/11/01 00:25:58;;;;;;;18.07;8.13;;;;;;;-145.18;100.00;46676.03;5091099;28;20428;-73
2022/11/01 00:28:24;;;;;;;17.63;7.47;;;;;;;-145.18;100.00;46674.06;5092142;28;20066;-73
2022/11/01 00:30:53;;;;;;;18.27;7.83;;;;;;;-145.18;100.00;46674.06;5092455;28;20060;-73
2022/11/01 00:33:19;;;;;;;11.53;6.50;;;;;;;-145.18;100.00;46676.03;5073904;28;20070;-73
2022/11/01 00:35:45;;;;;;;19.63;7.87;;;;;;;-145.18;100.00;46681.88;5092497;28;20111;-73
2022/11/01 00:38:12;;;;;;;16.10;6.83;;;;;;;-145.18;100.00;46676.03;5091709;28;20020;-73
2022/11/01 00:40:38;;;;;;;16.67;6.50;;;;;;;-145.18;100.00;46681.88;5092149;28;20555;-73
2022/11/01 00:43:03;;;;;;;16.27;6.77;;;;;;;-145.18;100.00;46679.94;5091840;28;20112;-73
2022/11/01 00:45:28;;;;;;;18.80;7.47;;;;;;;-145.18;100.00;46674.06;5092217;28;20036;-73
2022/11/01 00:47:54;;;;;;;16.07;6.47;;;;;;;-145.18;100.00;46687.75;5091833;28;20063;-73
2022/11/01 00:50:19;;;;;;;15.37;6.37;;;;;;;-145.18;100.00;46677.97;5074090;28;20477;-73
2022/11/01 00:52:44;;;;;;;18.43;7.10;;;;;;;-145.18;100.00;46674.06;5092020;28;20067;-74
2022/11/01 00:55:10;;;;;;;15.57;6.80;;;;;;;-145.18;100.00;46683.84;5091806;28;20500;-74
2022/11/01 00:57:35;;;;;;;15.57;6.90;;;;;;;-145.18;100.00;46681.88;5091966;28;20703;-74
2022/11/01 01:00:01;;;;;;;13.63;6.53;;;;;;;-145.18;100.00;46677.97;5091712;28;20493;-74
2022/11/01 01:02:26;;;;;;;14.73;6.23;;;;;;;-145.18;100.00;46679.94;5091670;28;20423;-73
2022/11/01 01:04:53;;;;;;;14.67;6.30;;;;;;;-145.18;100.00;46679.94;5091672;28;20056;-74
2022/11/01 01:07:19;;;;;;;14.10;6.50;;;;;;;-145.18;100.00;46676.03;5073685;28;20032;-74
2022/11/01 01:09:44;;;;;;;17.00;6.53;;;;;;;-145.18;100.00;46681.88;5091611;28;20075;-74
2022/11/01 01:12:09;;;;;;;17.40;6.70;;;;;;;-145.18;100.00;46683.84;5059410;28;20140;-74
2022/11/01 01:14:36;;;;;;;16.20;6.10;;;;;;;-145.18;100.00;46689.69;5071248;28;20066;-74
2022/11/01 01:17:02;;;;;;;17.40;6.63;;;;;;;-145.18;100.00;46677.97;5082952;28;20171;-74
2022/11/01 01:19:28;;;;;;;13.60;6.00;;;;;;;-145.18;100.00;46670.16;5091486;28;20028;-74
2022/11/01 01:21:55;;;;;;;11.87;5.90;;;;;;;-145.18;100.00;46685.78;5091384;28;20047;-74
2022/11/01 01:24:20;;;;;;;15.90;6.20;;;;;;;-145.18;100.00;46679.94;5091475;28;20381;-74
2022/11/01 01:26:46;;;;;;;16.70;5.83;;;;;;;-145.18;100.00;46683.84;5091183;28;20043;-74
2022/11/01 01:29:11;;;;;;;13.83;6.30;;;;;;;-145.18;100.00;46677.97;5090867;28;20113;-74
2022/11/01 01:31:37;;;;;;;17.30;6.37;;;;;;;-145.18;100.00;46681.88;5091181;28;20028;-74
2022/11/01 01:34:02;;;;;;;13.97;6.40;;;;;;;-145.18;100.00;46681.88;5091271;28;20032;-74
2022/11/01 01:36:27;;;;;;;12.07;6.50;;;;;;;-145.18;100.00;46674.06;5090739;28;20028;-74
2022/11/01 01:38:53;;;;;;;17.43;6.70;;;;;;;-145.18;100.00;46679.94;5091264;28;20500;-74
2022/11/01 01:44:41;;;;;;;12.30;5.93;;;;;;;-145.18;100.00;46677.97;5091232;28;20046;-74
2022/11/01 01:47:15;;;;;;;23.20;7.07;;;;;;;-145.18;100.00;46683.84;5090868;28;20032;-75
2022/11/01 01:49:41;;;;;;;15.73;5.87;;;;;;;-145.18;100.00;46676.03;5091107;28;20040;-75
2022/11/01 01:52:08;;;;;;;12.60;5.90;;;;;;;-145.18;100.00;46676.03;5090637;28;20096;-75
2022/11/01 01:54:34;;;;;;;11.70;6.17;;;;;;;-145.18;100.00;46679.94;5090841;28;20032;-75
2022/11/01 01:56:59;;;;;;;14.00;5.77;;;;;;;-145.18;100.00;46681.88;5090670;28;20415;-75
2022/11/01 01:59:25;;;;;;;11.77;5.90;;;;;;;-145.18;100.00;46679.94;5090998;28;20024;-75
2022/11/01 02:01:50;;;;;;;11.90;5.90;;;;;;;-145.18;100.00;46676.03;5072514;28;20032;-75
2022/11/01 02:04:26;;;;;;;11.63;5.77;;;;;;;-145.18;100.00;46685.78;5090116;28;20047;-74
2022/11/01 02:06:51;;;;;;;15.73;6.22;;;;;;;-145.18;100.00;46677.97;5090616;28;20547;-75
2022/11/01 02:09:17;;;;;;;13.50;6.07;;;;;;;-145.18;100.00;46676.03;5090359;28;20119;-74
2022/11/01 02:11:43;;;;;;;14.70;5.83;;;;;;;-145.18;100.00;46681.88;5090469;28;20043;-74
2022/11/01 02:14:08;;;;;;;17.43;6.50;;;;;;;-145.18;100.00;46681.88;5090427;28;20078;-75
2022/11/01 02:16:40;;;;;;;12.73;5.80;;;;;;;-145.18;100.00;46679.94;5090213;28;20036;-74
2022/11/01 02:19:17;;;;;;;9.90;5.27;;;;;;;-145.18;100.00;46681.88;5090424;28;20039;-74
2022/11/01 02:21:45;;;;;;;12.40;6.07;;;;;;;-145.18;100.00;46670.16;5090314;28;20085;-74
2022/11/01 02:24:35;;;;;;;13.40;6.00;;;;;;;-145.18;100.00;46683.84;5090258;28;20036;-74
2022/11/01 02:27:05;;;;;;;11.37;6.20;;;;;;;-145.18;100.00;46679.94;5090031;28;20024;-74
2022/11/01 02:30:07;;;;;;;12.77;5.33;;;;;;;-145.18;100.00;46677.97;5090202;28;20107;-74
2022/11/01 02:32:55;;;;;;;13.60;5.70;;;;;;;-145.18;100.00;46683.84;5090242;28;20028;-74
2022/11/01 02:36:02;;;;;;;12.77;5.33;;;;;;;-145.18;100.00;46668.22;5090528;28;20024;-73
2022/11/01 02:38:33;;;;;;;;;;;;;;;-145.18;100.00;46681.88;5047519;28;20037;-73
2022/11/01 02:40:59;;;;;;;9.03;4.60;;;;;;;-145.18;100.00;46681.88;5084704;28;19923;-74
2022/11/01 02:43:43;;;;;;;10.70;4.90;;;;;;;-145.18;100.00;46683.84;5090121;28;20024;-74
2022/11/01 02:48:55;;;;;;;10.80;4.90;;;;;;;-145.18;100.00;46681.88;5092213;28;20484;-74
2022/11/01 02:51:23;;;;;;;11.23;3.93;;;;;;;-145.18;100.00;46681.88;5094100;28;20032;-74
2022/11/01 02:53:49;;;;;;;9.70;3.90;;;;;;;-145.18;100.00;46689.69;5093923;28;20032;-74
2022/11/01 02:56:17;;;;;;;12.23;3.37;;;;;;;-145.18;100.00;46699.47;5094211;28;20393;-74
2022/11/01 02:58:45;;;;;;;8.17;3.20;;;;;;;-145.18;100.00;46701.41;5094109;28;20115;-74
2022/11/01 03:03:47;;;;;;;9.10;3.17;;;;;;;-145.18;100.00;46707.28;5052027;22;20049;-74
2022/11/01 03:06:22;;;;;;;17.33;2.70;;;;;;;-145.18;100.00;46713.13;5070081;28;20029;-74
2022/11/01 03:08:53;;;;;;;10.02;3.05;;;;;;;-145.18;100.00;46709.22;5072873;28;20078;-74
2022/11/01 03:11:23;;;;;;;7.87;3.10;;;;;;;-145.18;100.00;46715.09;5072955;28;20032;-73
2022/11/01 03:13:57;;;;;;;8.23;2.50;;;;;;;-145.18;100.00;46715.09;5073020;28;20099;-74
2022/11/01 03:16:42;;;;;;;6.70;1.37;;;;;;;-145.18;100.00;46660.41;5073314;28;20427;-73
2022/11/01 03:19:44;;;;;;;5.83;1.33;;;;;;;-145.18;100.00;46650.63;5073606;28;20693;-73
2022/11/01 03:22:14;;;;;;;9.13;1.30;;;;;;;-145.18;100.00;46660.41;5065558;28;20055;-74
2022/11/01 03:24:51;;;;;;;4.70;1.00;;;;;;;-145.18;100.00;46633.06;5073421;28;20472;-73
2022/11/01 03:27:26;;;;;;;11.33;1.20;;;;;;;-145.18;100.00;46636.94;5073246;28;20020;-74
2022/11/01 03:29:59;;;;;;;2.70;1.05;;;;;;;-145.18;100.00;46625.22;5073002;28;20163;-74
2022/11/01 03:32:29;;;;;;;4.13;1.10;;;;;;;-145.18;100.00;46633.06;5072922;28;20090;-73
2022/11/01 03:34:58;;;;;;;5.17;1.20;;;;;;;-145.18;100.00;46660.41;5054520;28;20024;-73
2022/11/01 03:37:24;;;;;;;5.10;1.00;;;;;;;-145.18;100.00;46654.53;5072877;28;20044;-73
2022/11/01 03:39:51;;;;;;;4.20;1.10;;;;;;;-145.18;100.00;46656.50;5072685;28;20024;-73
2022/11/01 03:42:22;;;;;;;4.70;1.40;;;;;;;-145.18;100.00;46654.53;5054924;28;20036;-73
2022/11/01 03:45:01;;;;;;;3.53;1.20;;;;;;;-145.18;100.00;46642.81;5072942;28;20036;-73
2022/11/01 03:47:28;;;;;;;5.60;1.40;;;;;;;-145.18;100.00;46642.81;5072598;28;20016;-73
2022/11/01 03:50:13;;;;;;;2.03;1.00;;;;;;;-145.18;100.00;46654.53;5072812;28;20037;-73
2022/11/01 03:52:38;;;;;;;5.07;1.40;;;;;;;-145.18;100.00;46654.53;5072737;28;20024;-73
2022/11/01 03:55:16;;;;;;;3.60;2.13;;;;;;;-145.18;100.00;46650.63;5072627;28;20473;-73
2022/11/01 03:57:53;;;;;;;3.87;1.40;;;;;;;-145.18;100.00;46638.91;5072724;28;20399;-73
2022/11/01 04:00:20;;;;;;;7.40;1.97;;;;;;;-145.18;100.00;46638.91;5073054;28;20024;-73
2022/11/01 04:02:46;;;;;;;4.90;1.57;;;;;;;-145.18;100.00;46642.81;5086960;28;20047;-73
2022/11/01 04:05:11;;;;;;;5.17;1.33;;;;;;;-145.18;100.00;46642.81;5093038;28;20024;-73
2022/11/01 04:07:38;;;;;;;7.30;1.40;;;;;;;-145.18;100.00;46642.81;5092559;28;20106;-73
2022/11/01 04:10:04;;;;;;;3.87;1.57;;;;;;;-145.18;100.00;46656.50;5092626;28;20036;-73
2022/11/01 04:12:30;;;;;;;4.67;1.73;;;;;;;-145.18;100.00;46640.88;5092446;28;20064;-73
2022/11/01 04:20:33;;;;;;;4.67;1.10;;;;;;;-145.18;100.00;46654.53;5092882;28;20123;-73
2022/11/01 04:23:07;;;;;;;6.88;1.15;;;;;;;-145.18;100.00;46642.81;5092221;28;20024;-73
2022/11/01 04:25:33;;;;;;;5.23;1.50;;;;;;;-145.18;100.00;46660.41;5092603;28;20460;-73
2022/11/01 04:27:59;;;;;;;4.57;1.03;;;;;;;-145.18;100.00;46631.09;5091896;28;20024;-73
2022/11/01 04:30:26;;;;;;;3.30;1.20;;;;;;;-145.18;100.00;46636.94;5092590;28;20102;-73
2022/11/01 04:32:52;;;;;;;5.20;0.87;;;;;;;-145.18;100.00;46646.72;5091934;28;20038;-73
2022/11/01 04:35:17;;;;;;;3.73;1.23;;;;;;;-145.18;100.00;46658.44;5090627;28;20044;-73
2022/11/01 04:37:43;;;;;;;4.50;1.10;;;;;;;-145.18;100.00;46656.50;5082041;28;20032;-73
2022/11/01 04:40:08;;;;;;;7.10;1.70;;;;;;;-145.18;100.00;46668.22;5084129;28;20477;-72
2022/11/01 04:42:35;;;;;;;5.47;1.63;;;;;;;-145.18;100.00;46676.03;5091180;28;20495;-73
2022/11/01 04:45:01;;;;;;;9.50;1.70;;;;;;;-145.18;100.00;46664.31;5082836;28;20086;-73
2022/11/01 04:47:26;;;;;;;7.30;1.00;;;;;;;-145.18;100.00;46662.34;5082651;28;20758;-73
2022/11/01 04:49:52;;;;;;;6.63;1.77;;;;;;;-145.18;100.00;46660.41;5084801;28;20062;-72
2022/11/01 04:52:18;;;;;;;9.50;1.27;;;;;;;-145.18;100.00;46650.63;5090966;28;20050;-72
2022/11/01 04:54:43;;;;;;;12.13;2.07;;;;;;;-145.18;100.00;46646.72;5091606;28;20484;-72
2022/11/01 04:57:21;;;;;;;8.90;1.67;;;;;;;-145.18;100.00;46648.69;5068040;28;20456;-72
2022/11/01 04:59:56;;;;;;;14.13;1.67;;;;;;;-145.18;100.00;46650.63;5084766;28;20033;-72
2022/11/01 05:02:22;;;;;;;5.38;1.20;;;;;;;-145.18;100.00;46646.72;5087236;28;20064;-72
2022/11/01 05:04:49;;;;;;;6.97;1.07;;;;;;;-145.18;100.00;46646.72;5086575;28;20050;-72
2022/11/01 05:07:15;;;;;;;11.27;1.70;;;;;;;-145.18;100.00;46636.94;5090994;28;20040;-72
2022/11/01 05:09:41;;;;;;;7.13;0.90;;;;;;;-145.18;100.00;46638.91;5090652;28;20028;-72
2022/11/01 05:12:07;;;;;;;4.33;1.00;;;;;;;-145.18;100.00;46633.06;5065188;28;20388;-72
2022/11/01 05:14:33;;;;;;;5.50;1.07;;;;;;;-145.18;100.00;46648.69;5082542;28;20473;-72
2022/11/01 05:16:58;;;;;;;6.80;1.43;;;;;;;-145.18;100.00;46656.50;5084630;28;20036;-72
2022/11/01 05:19:24;;;;;;;5.93;1.20;;;;;;;-145.18;100.00;46666.25;5091083;28;20032;-72
2022/11/01 05:21:50;;;;;;;5.67;1.20;;;;;;;-145.18;100.00;46656.50;5090693;28;20024;-72
2022/11/01 05:24:15;;;;;;;6.93;1.70;;;;;;;-145.18;100.00;46664.31;5090526;28;20233;-72
2022/11/01 05:26:41;;;;;;;6.67;0.97;;;;;;;-145.18;100.00;46642.81;5091038;28;20063;-71
2022/11/01 05:29:06;;;;;;;7.10;1.10;;;;;;;-145.18;100.00;46640.88;5081951;28;20040;-72
2022/11/01 05:31:32;;;;;;;7.77;1.40;;;;;;;-145.18;100.00;46660.41;5082551;28;20030;-72
2022/11/01 05:33:57;;;;;;;5.23;1.10;;;;;;;-145.18;100.00;46660.41;5083478;28;20064;-72
2022/11/01 05:36:22;;;;;;;3.27;0.90;;;;;;;-145.18;100.00;46658.44;5083971;28;20079;-72
2022/11/01 05:38:48;;;;;;;7.03;1.30;;;;;;;-145.18;100.00;46658.44;5081249;28;20539;-72
2022/11/01 05:41:13;;;;;;;11.47;1.10;;;;;;;-145.18;100.00;46629.13;5090930;28;20721;-72
2022/11/01 05:43:39;;;;;;;7.13;1.20;;;;;;;-145.18;100.00;46640.88;5090542;28;20767;-72
2022/11/01 05:46:06;;;;;;;12.83;1.80;;;;;;;-145.18;100.00;46652.59;5090308;28;20042;-72
2022/11/01 05:48:32;;;;;;;8.43;1.67;;;;;;;-145.18;100.00;46660.41;5090697;28;20029;-72
2022/11/01 05:50:57;;;;;;;8.60;0.77;;;;;;;-145.18;100.00;46648.69;5090849;28;20048;-72
2022/11/01 05:53:22;;;;;;;8.77;1.07;;;;;;;-145.18;100.00;46635.00;5090908;28;20457;-72
2022/11/01 05:55:48;;;;;;;8.87;1.23;;;;;;;-145.18;100.00;46631.09;5090866;28;20024;-72
2022/11/01 05:58:13;;;;;;;6.60;1.00;;;;;;;-145.18;100.00;46660.41;5091059;28;20043;-72
2022/11/01 06:00:38;;;;;;;12.50;1.47;;;;;;;-145.18;100.00;46635.00;5090733;28;20404;-71
2022/11/01 06:03:04;;;;;;;6.73;0.97;;;;;;;-145.18;100.00;46636.94;5089374;28;20059;-72
2022/11/01 06:05:31;;;;;;;9.70;1.53;;;;;;;-145.18;100.00;46646.72;5090377;28;20492;-71
2022/11/01 06:07:59;;;;;;;11.63;2.00;;;;;;;-145.18;100.00;46679.94;5090246;28;20404;-72
2022/11/01 06:10:24;;;;;;;13.10;1.70;;;;;;;-145.18;100.00;46668.22;5073417;28;20055;-72
2022/11/01 06:12:49;;;;;;;7.87;1.20;;;;;;;-145.18;100.00;46676.03;5093584;28;20024;-72
2022/11/01 06:15:15;;;;;;;8.37;1.37;;;;;;;-145.18;100.00;46689.69;5090343;28;20036;-72
2022/11/01 06:17:40;;;;;;;14.33;3.43;;;;;;;-145.18;100.00;46691.66;5090099;28;20085;-72
2022/11/01 06:20:06;;;;;;;11.57;1.47;;;;;;;-145.18;100.00;46676.03;5093852;28;20451;-72
2022/11/01 06:22:34;;;;;;;16.13;2.60;;;;;;;-145.18;100.00;46691.66;5101579;28;20035;-72
2022/11/01 06:25:00;;;;;;;11.07;1.83;;;;;;;-145.18;100.00;46670.16;5089901;28;20086;-72
2022/11/01 06:27:25;;;;;;;11.83;1.60;;;;;;;-145.18;100.00;46670.16;5090160;28;20032;-72
2022/11/01 06:29:50;;;;;;;20.53;2.23;;;;;;;-145.18;100.00;46674.06;5089721;28;20031;-72
2022/11/01 06:32:16;;;;;;;15.67;3.17;;;;;;;-145.18;100.00;46668.22;5090212;28;20036;-74
2022/11/01 06:34:41;;;;;;;13.47;2.53;;;;;;;-145.18;100.00;46666.25;5079824;28;20090;-72
2022/11/01 06:37:06;;;;;;;15.20;1.80;;;;;;;-145.18;100.00;46685.78;5069966;28;20067;-72
2022/11/01 06:39:32;;;;;;;12.77;1.97;;;;;;;-145.18;100.00;46672.13;5072694;28;20028;-72
2022/11/01 06:41:57;;;;;;;8.63;1.97;;;;;;;-145.18;100.00;46670.16;5067371;28;20039;-72
2022/11/01 06:44:23;;;;;;;8.80;1.63;;;;;;;-145.18;100.00;46664.31;5086006;28;20035;-72
2022/11/01 06:46:48;;;;;;;14.77;1.83;;;;;;;-145.18;100.00;46664.31;5078798;28;20577;-72
2022/11/01 06:49:14;;;;;;;10.80;1.70;;;;;;;-145.18;100.00;46658.44;5069221;28;20029;-72
2022/11/01 06:51:40;;;;;;;17.27;1.90;;;;;;;-145.18;100.00;46666.25;5077137;28;20040;-73
2022/11/01 06:54:05;;;;;;;11.73;2.53;;;;;;;-145.18;100.00;46666.25;5089219;28;20391;-73
2022/11/01 06:56:30;;;;;;;11.70;1.87;;;;;;;-145.18;100.00;46658.44;5088711;28;20059;-71
2022/11/01 06:58:56;;;;;;;14.47;1.70;;;;;;;-145.18;100.00;46658.44;5088954;28;20123;-71
2022/11/01 07:01:23;;;;;;;10.57;1.37;;;;;;;-145.18;100.00;46662.34;5089412;28;20067;-73
2022/11/01 07:03:52;;;;;;;14.43;3.20;;;;;;;-145.18;100.00;46666.25;5088909;28;20082;-71
2022/11/01 07:06:18;;;;;;;16.77;2.10;;;;;;;-145.18;100.00;46658.44;5089113;28;20071;-74
2022/11/01 07:08:44;;;;;;;15.27;2.40;;;;;;;-145.18;100.00;46640.88;5088304;28;20036;-73
2022/11/01 07:11:09;;;;;;;14.37;1.83;;;;;;;-145.18;100.00;46648.69;5087770;28;20032;-74
2022/11/01 07:13:36;;;;;;;10.53;1.90;;;;;;;-145.18;100.00;46652.59;5088757;28;20057;-73
2022/11/01 07:16:04;;;;;;;17.13;2.73;;;;;;;-145.18;100.00;46644.78;5087177;28;20070;-71
2022/11/01 07:18:30;;;;;;;8.97;1.30;;;;;;;-145.18;100.00;46633.06;5068234;28;20117;-71
2022/11/01 07:20:56;;;;;;;15.47;2.50;;;;;;;-145.18;100.00;46631.09;5066926;28;20033;-71
2022/11/01 07:23:22;;;;;;;12.77;2.73;;;;;;;-145.18;100.00;46644.78;5089444;28;20044;-71
2022/11/01 07:25:51;;;;;;;11.17;1.60;;;;;;;-145.18;100.00;46638.91;5089453;28;20085;-74
2022/11/01 07:28:16;;;;;;;12.33;1.87;;;;;;;-145.18;100.00;46633.06;5070812;28;20078;-71
2022/11/01 07:30:42;;;;;;;16.30;1.70;;;;;;;-145.18;100.00;46633.06;5088813;28;20031;-73
2022/11/01 07:33:07;;;;;;;10.33;2.30;;;;;;;-145.18;100.00;46633.06;5070897;28;20039;-74
2022/11/01 07:35:33;;;;;;;23.27;2.70;;;;;;;-145.18;100.00;46629.13;5092416;28;20040;-71
2022/11/01 07:37:59;;;;;;;13.97;1.87;;;;;;;-145.18;100.00;46636.94;5092264;28;20134;-74
2022/11/01 07:40:26;;;;;;;13.37;2.17;;;;;;;-145.18;100.00;46625.22;5093241;28;20123;-74
2022/11/01 07:42:54;;;;;;;11.77;1.90;;;;;;;-145.18;100.00;46635.00;5092299;28;20090;-73
2022/11/01 07:45:19;;;;;;;20.43;2.23;;;;;;;-145.18;100.00;46627.19;5093285;28;20103;-74
2022/11/01 07:47:45;;;;;;;19.43;2.07;;;;;;;-145.18;100.00;46629.13;5088927;28;20151;-71
2022/11/01 07:50:10;;;;;;;10.50;1.63;;;;;;;-145.18;100.00;46636.94;5093333;28;20083;-73
2022/11/01 07:52:35;;;;;;;21.37;2.17;;;;;;;-145.18;100.00;46635.00;5091880;28;20047;-71
2022/11/01 07:55:01;;;;;;;14.60;2.07;;;;;;;-145.18;100.00;46625.22;5092738;28;20038;-72
2022/11/01 07:57:26;;;;;;;13.83;1.73;;;;;;;-145.18;100.00;46642.81;5092510;28;20114;-71
2022/11/01 07:59:52;;;;;;;19.83;2.53;;;;;;;-145.18;100.00;46638.91;5092346;28;20032;-71
2022/11/01 08:02:17;;;;;;;12.10;1.90;;;;;;;-145.18;100.00;46625.22;5091992;28;20448;-74
2022/11/01 08:04:42;;;;;;;23.80;2.40;;;;;;;-145.18;100.00;46627.19;5092359;28;20037;-71
2022/11/01 08:07:08;;;;;;;14.37;1.80;;;;;;;-145.18;100.00;46636.94;5092338;28;20040;-72
2022/11/01 08:09:33;;;;;;;17.03;2.23;;;;;;;-145.18;100.00;46633.06;5092301;28;20089;-71
2022/11/01 08:11:58;;;;;;;17.70;2.80;;;;;;;-145.18;100.00;46642.81;5091968;28;20042;-71
2022/11/01 08:14:24;;;;;;;16.20;2.23;;;;;;;-145.18;100.00;46636.94;5092381;28;20032;-74
2022/11/01 08:16:54;;;;;;;14.17;2.10;;;;;;;-145.18;100.00;46646.72;5092004;28;20101;-71
2022/11/01 08:19:20;;;;;;;15.53;2.40;;;;;;;-145.18;100.00;46636.94;5082747;28;20033;-71
2022/11/01 08:21:46;;;;;;;16.10;2.93;;;;;;;-145.18;100.00;46638.91;5069167;28;20033;-74
2022/11/01 08:24:11;;;;;;;14.00;2.30;;;;;;;-145.18;100.00;46644.78;5071881;28;20029;-73
2022/11/01 08:26:36;;;;;;;16.47;2.77;;;;;;;-145.18;100.00;46633.06;5054339;28;20036;-71
2022/11/01 08:29:02;;;;;;;16.27;2.27;;;;;;;-145.18;100.00;46629.13;5091707;28;20044;-73
2022/11/01 08:31:27;;;;;;;21.03;4.30;;;;;;;-145.18;100.00;46635.00;5092122;28;20024;-71
2022/11/01 08:33:53;;;;;;;11.60;1.67;;;;;;;-145.18;100.00;46631.09;5091735;28;20029;-71
2022/11/01 08:36:20;;;;;;;13.13;2.07;;;;;;;-145.18;100.00;46636.94;5089362;28;20548;-71
2022/11/01 08:38:46;;;;;;;17.23;2.00;;;;;;;-145.18;100.00;46648.69;5068377;28;20047;-71
2022/11/01 08:41:11;;;;;;;16.97;3.50;;;;;;;-145.18;100.00;46644.78;5065186;28;20520;-74
2022/11/01 08:43:37;;;;;;;16.33;2.43;;;;;;;-145.18;100.00;46640.88;5070410;28;20041;-72
2022/11/01 08:46:02;;;;;;;21.80;2.20;;;;;;;-145.18;100.00;46650.63;5066529;28;20400;-73
2022/11/01 08:48:27;;;;;;;18.73;3.03;;;;;;;-145.18;100.00;46633.06;5070239;28;20036;-71
2022/11/01 08:50:53;;;;;;;18.67;1.93;;;;;;;-145.18;100.00;46654.53;5071184;28;20024;-74
2022/11/01 08:53:18;;;;;;;12.93;2.07;;;;;;;-145.18;100.00;46656.50;5064047;28;20028;-74
2022/11/01 08:55:44;;;;;;;15.57;2.93;;;;;;;-145.18;100.00;46666.25;5064964;28;20528;-72
2022/11/01 08:58:09;;;;;;;14.83;2.87;;;;;;;-145.18;100.00;46666.25;5070099;28;20063;-71
2022/11/01 09:00:35;;;;;;;15.83;2.23;;;;;;;-145.18;100.00;46666.25;5064618;28;20028;-74
2022/11/01 09:03:01;;;;;;;19.60;2.10;;;;;;;-145.18;100.00;46664.31;5047691;28;20049;-72
2022/11/01 09:05:28;;;;;;;11.83;2.60;;;;;;;-145.18;100.00;46662.34;5063564;28;20138;-74
2022/11/01 09:07:58;;;;;;;21.10;2.57;;;;;;;-145.18;100.00;46664.31;5070953;28;20121;-72
2022/11/01 09:10:24;;;;;;;12.07;2.20;;;;;;;-145.18;100.00;46683.84;5060880;28;20503;-74
2022/11/01 09:12:50;;;;;;;18.87;2.60;;;;;;;-145.18;100.00;46679.94;5069212;28;20119;-74
2022/11/01 09:15:16;;;;;;;10.23;1.93;;;;;;;-145.18;100.00;46681.88;5071224;28;20032;-74
2022/11/01 09:17:41;;;;;;;13.63;2.30;;;;;;;-145.18;100.00;46683.84;5070364;28;20895;-74
2022/11/01 09:20:08;;;;;;;17.90;2.77;;;;;;;-145.18;100.00;46695.56;5070712;28;20067;-74
2022/11/01 09:22:36;;;;;;;16.77;2.43;;;;;;;-145.18;100.00;46683.84;5070485;28;20036;-74
2022/11/01 09:25:03;;;;;;;16.10;2.10;;;;;;;-145.18;100.00;46693.59;5060855;28;20397;-72
2022/11/01 09:27:28;;;;;;;21.77;3.23;;;;;;;-145.18;100.00;46683.84;5056882;28;20035;-74
2022/11/01 09:29:53;;;;;;;18.07;2.00;;;;;;;-145.18;100.00;46707.28;5052233;28;20044;-73
2022/11/01 09:32:19;;;;;;;16.97;2.63;;;;;;;-145.18;100.00;46703.38;5070172;28;20044;-73
2022/11/01 09:34:45;;;;;;;17.77;1.93;;;;;;;-145.18;100.00;46699.47;5070598;28;20072;-74
2022/11/01 09:37:10;;;;;;;13.87;2.37;;;;;;;-145.18;100.00;46701.41;5070013;28;20392;-74
2022/11/01 09:39:36;;;;;;;17.47;2.83;;;;;;;-145.18;100.00;46724.84;5070402;28;20044;-73
2022/11/01 09:42:05;;;;;;;12.23;1.97;;;;;;;-145.18;100.00;46738.53;5068311;28;20040;-73
2022/11/01 09:44:36;;;;;;;12.40;3.00;;;;;;;-145.18;100.00;46734.63;5050200;28;20440;-73
2022/11/01 09:47:24;;;;;;;24.17;3.03;;;;;;;-145.18;100.00;46699.47;5035433;28;20382;-73
2022/11/01 09:50:01;;;;;;;14.63;2.83;;;;;;;-145.18;100.00;46754.16;5070106;28;20028;-73
2022/11/01 09:52:27;;;;;;;13.73;2.07;;;;;;;-145.18;100.00;46713.13;5070191;28;20413;-73
2022/11/01 09:54:52;;;;;;;12.90;2.37;;;;;;;-145.18;100.00;46734.63;5069823;28;20052;-73
2022/11/01 09:57:35;;;;;;;12.60;3.00;;;;;;;-145.18;100.00;46754.16;5069846;28;20036;-73
2022/11/01 10:00:05;;;;;;;17.60;2.77;;;;;;;-145.18;100.00;46756.09;5069692;28;20562;-73
2022/11/01 10:03:19;;;;;;;12.27;2.63;;;;;;;-145.18;100.00;46711.19;5073408;28;20047;-73
2022/11/01 10:06:14;;;;;;;13.87;2.47;;;;;;;-145.18;100.00;46758.06;5080704;28;20062;-73
2022/11/01 10:09:07;;;;;;;11.43;3.23;;;;;;;-145.18;100.00;46781.50;5089473;28;20048;-73
2022/11/01 10:11:41;;;;;;;14.83;2.23;;;;;;;-145.18;100.00;46756.09;5090290;28;20553;-73
2022/11/01 10:14:46;;;;;;;13.47;2.53;;;;;;;-145.18;100.00;46783.47;5090022;28;20112;-73
2022/11/01 10:17:22;;;;;;;16.80;2.83;;;;;;;-145.18;100.00;46732.66;5090070;28;20093;-73
2022/11/01 10:19:48;;;;;;;;;;;;;;;-145.18;100.00;46752.19;5090296;28;20334;-73
2022/11/01 10:22:34;;;;;;;;;;;;;;;-145.18;100.00;46717.03;5090420;28;19911;-72
2022/11/01 10:25:21;;;;;;;12.17;2.40;;;;;;;-145.18;100.00;46756.09;5090023;28;19912;-73
2022/11/01 10:27:55;;;;;;;11.07;2.03;;;;;;;-145.18;100.00;46769.78;5089584;28;20488;-73
2022/11/01 10:30:21;;;;;;;23.80;4.17;;;;;;;-145.18;100.00;46760.00;5089717;28;20028;-73
2022/11/01 10:32:56;;;;;;;21.37;2.37;;;;;;;-145.18;100.00;46777.59;5089594;28;20039;-73
2022/11/01 10:35:34;;;;;;;17.33;2.85;;;;;;;-145.18;100.00;46781.50;5089894;28;20453;-73
2022/11/01 10:38:05;;;;;;;16.47;1.97;;;;;;;-145.18;100.00;46785.41;5089671;28;20115;-72
2022/11/01 10:40:42;;;;;;;12.37;2.40;;;;;;;-145.18;100.00;46789.31;5090006;28;20361;-73
2022/11/01 10:43:13;;;;;;;14.90;2.40;;;;;;;-145.18;100.00;46750.25;5089790;28;20035;-73
2022/11/01 10:45:42;;;;;;;16.80;1.87;;;;;;;-145.18;100.00;46756.09;5072482;28;20097;-73
2022/11/01 10:48:24;;;;;;;12.37;1.80;;;;;;;-145.18;100.00;46773.69;5089651;28;20055;-73
2022/11/01 10:50:50;;;;;;;19.93;3.57;;;;;;;-145.18;100.00;46795.19;5089805;28;20039;-73
2022/11/01 10:53:18;;;;;;;17.63;2.60;;;;;;;-145.18;100.00;46781.50;5068752;28;20484;-73
2022/11/01 10:55:58;;;;;;;13.20;2.17;;;;;;;-145.18;100.00;46779.56;5069686;28;20051;-73
2022/11/01 10:58:36;;;;;;;11.50;1.93;;;;;;;-145.18;100.00;46785.41;5069533;28;20039;-73
2022/11/01 11:01:06;;;;;;;16.63;3.30;;;;;;;-145.18;100.00;46808.84;5068061;28;20037;-73
2022/11/01 11:03:31;;;;;;;16.60;1.97;;;;;;;-145.18;100.00;46791.28;5072924;28;20093;-73
2022/11/01 11:06:03;;;;;;;8.33;1.60;;;;;;;-145.18;100.00;46822.53;5089841;28;20032;-73
2022/11/01 11:08:29;;;;;;;13.97;2.53;;;;;;;-145.18;100.00;46844.00;5089075;28;20545;-73
2022/11/01 11:10:59;;;;;;;11.80;2.27;;;;;;;-145.18;100.00;46945.59;5093417;28;20040;-73
2022/11/01 11:13:26;;;;;;;13.73;2.70;;;;;;;-145.18;100.00;46871.38;5093405;28;20082;-73
2022/11/01 11:15:54;;;;;;;11.23;2.67;;;;;;;-145.18;100.00;46851.81;5065939;28;20093;-74
2022/11/01 11:18:24;;;;;;;17.20;2.57;;;;;;;-145.18;100.00;46892.84;5089610;28;20052;-73
2022/11/01 11:20:58;;;;;;;14.43;2.37;;;;;;;-145.18;100.00;46986.63;5092632;28;20028;-74
2022/11/01 11:23:25;;;;;;;13.37;2.10;;;;;;;-145.18;100.00;47301.16;5092574;28;20089;-74
2022/11/01 11:25:51;;;;;;;15.27;2.47;;;;;;;-145.18;100.00;47254.25;5087422;28;20115;-74